createdAt,value
2022-10-14T00:04:48.627Z,10.9
2022-10-14T00:09:48.696Z,10.1
2022-10-14T00:14:48.794Z,7.3
2022-10-14T00:19:48.863Z,10.5
2022-10-14T00:24:48.998Z,13.4
2022-10-14T00:29:49.075Z,18.8
2022-10-14T00:34:49.083Z,20.4
2022-10-14T00:39:52.324Z,19.5
2022-10-14T00:44:49.243Z,16.1
2022-10-14T00:49:49.321Z,17.6
2022-10-14T00:54:49.320Z,19.8
2022-10-14T00:59:49.340Z,22.4
2022-10-14T01:04:51.475Z,21.4
2022-10-14T01:09:49.424Z,19.8
2022-10-14T01:14:49.525Z,22.0
2022-10-14T01:19:49.609Z,20.9
2022-10-14T01:24:49.679Z,20.2
2022-10-14T01:29:49.719Z,29.4
2022-10-14T01:34:49.764Z,24.4
2022-10-14T01:39:49.790Z,23.3
2022-10-14T01:44:49.827Z,20.3
2022-10-14T01:49:49.874Z,16.1
2022-10-14T01:54:49.910Z,14.3
2022-10-14T01:59:49.986Z,12.6
2022-10-14T02:04:52.120Z,12.8
2022-10-14T02:09:50.584Z,11.3
2022-10-14T02:14:50.168Z,11.4
2022-10-14T02:19:50.229Z,12.5
2022-10-14T02:24:50.306Z,8.7
2022-10-14T02:29:50.358Z,12.8
2022-10-14T02:34:50.413Z,14.5
2022-10-14T02:39:50.485Z,15.9
2022-10-14T02:44:50.522Z,13.9
2022-10-14T02:49:50.581Z,15.5
2022-10-14T02:54:53.207Z,13.5
2022-10-14T02:59:50.664Z,12.2
2022-10-14T03:04:52.710Z,18.3
2022-10-14T03:09:50.765Z,14.3
2022-10-14T03:14:52.797Z,14.5
2022-10-14T03:19:53.336Z,12.5
2022-10-14T03:24:50.913Z,12.7
2022-10-14T03:29:51.001Z,10.5
2022-10-14T03:34:51.056Z,8.2
2022-10-14T03:39:51.145Z,9.8
2022-10-14T03:44:53.202Z,8.3
2022-10-14T03:49:51.263Z,7.4
2022-10-14T03:54:53.337Z,8.2
2022-10-14T03:59:51.437Z,8.0
2022-10-14T04:04:57.094Z,7.8
2022-10-14T04:09:52.009Z,7.9
2022-10-14T04:14:55.522Z,6.5
2022-10-14T04:19:51.667Z,8.2
2022-10-14T04:24:51.693Z,7.7
2022-10-14T04:29:51.764Z,9.2
2022-10-14T04:34:51.855Z,7.8
2022-10-14T04:39:51.900Z,5.6
2022-10-14T04:44:51.969Z,6.2
2022-10-14T04:49:52.057Z,5.3
2022-10-14T04:54:52.056Z,6.9
2022-10-14T04:59:52.146Z,7.1
2022-10-14T05:04:52.263Z,5.9
2022-10-14T05:09:56.370Z,6.2
2022-10-14T05:14:52.417Z,5.8
2022-10-14T05:19:54.553Z,4.5
2022-10-14T05:24:52.544Z,8.4
2022-10-14T05:29:52.653Z,3.7
2022-10-14T05:34:52.691Z,4.1
2022-10-14T05:39:52.778Z,5.2
2022-10-14T05:44:52.824Z,6.8
2022-10-14T05:49:52.929Z,7.1
2022-10-14T05:54:52.983Z,6.1
2022-10-14T05:59:53.112Z,8.9
2022-10-14T06:04:53.149Z,5.6
2022-10-14T06:09:53.237Z,5.8
2022-10-14T06:14:53.313Z,9.0
2022-10-14T06:19:53.462Z,5.4
2022-10-14T06:24:53.493Z,5.8
2022-10-14T06:29:53.597Z,6.7
2022-10-14T06:34:53.698Z,8.9
2022-10-14T06:39:53.821Z,7.2
2022-10-14T06:44:54.153Z,10.0
2022-10-14T06:49:54.041Z,9.6
2022-10-14T06:54:54.144Z,8.8
2022-10-14T06:59:54.262Z,12.7
2022-10-14T07:04:54.316Z,12.0
2022-10-14T07:09:54.377Z,10.5
2022-10-14T07:14:54.530Z,12.5
2022-10-14T07:19:54.504Z,9.9
2022-10-14T07:24:54.699Z,11.2
2022-10-14T07:29:54.807Z,10.7
2022-10-14T07:34:55.603Z,11.9
2022-10-14T07:39:54.851Z,13.9
2022-10-14T07:44:55.056Z,12.8
2022-10-14T07:49:57.112Z,11.1
2022-10-14T07:54:55.222Z,11.3
2022-10-14T07:59:57.369Z,10.4
2022-10-14T08:05:18.805Z,7.3
2022-10-14T08:09:55.703Z,10.1
2022-10-14T08:14:55.865Z,10.9
2022-10-14T08:19:56.067Z,10.6
2022-10-14T08:24:56.273Z,8.2
2022-10-14T08:29:56.445Z,7.9
2022-10-14T08:34:56.657Z,8.2
2022-10-14T08:39:56.877Z,8.1
2022-10-14T08:44:57.112Z,8.2
2022-10-14T08:49:57.370Z,7.1
2022-10-14T08:54:57.591Z,5.9
2022-10-14T08:59:57.917Z,6.0
2022-10-14T09:04:58.123Z,3.1
2022-10-14T09:09:58.410Z,2.9
2022-10-14T09:14:58.726Z,2.4
2022-10-14T09:19:58.991Z,2.0
2022-10-14T09:29:59.650Z,1.7
2022-10-14T09:34:59.904Z,3.1
2022-10-14T09:45:00.513Z,2.3
2022-10-14T09:50:00.810Z,1.8
2022-10-14T09:55:01.141Z,2.4
2022-10-14T10:00:01.409Z,1.6
2022-10-14T10:05:01.737Z,1.4
2022-10-14T10:10:02.040Z,1.6
2022-10-14T10:15:02.363Z,2.0
2022-10-14T10:20:04.673Z,1.4
2022-10-14T10:25:03.063Z,1.7
2022-10-14T10:30:03.329Z,1.5
2022-10-14T10:35:03.655Z,1.2
2022-10-14T10:45:04.162Z,2.5
2022-10-14T10:50:04.520Z,1.9
2022-10-14T10:55:04.811Z,1.6
2022-10-14T11:00:05.155Z,1.3
2022-10-14T11:05:05.513Z,3.3
2022-10-14T11:10:05.993Z,3.5
2022-10-14T11:15:06.168Z,3.1
2022-10-14T11:20:06.510Z,1.6
2022-10-14T11:25:06.813Z,2.1
2022-10-14T11:30:09.147Z,1.2
2022-10-14T11:35:09.599Z,1.8
2022-10-14T11:40:07.710Z,2.5
2022-10-14T11:45:08.007Z,2.2
2022-10-14T11:55:11.009Z,2.6
2022-10-14T12:00:08.921Z,1.6
2022-10-14T12:10:09.510Z,1.4
2022-10-14T12:15:09.836Z,1.3
2022-10-14T12:20:10.129Z,1.7
2022-10-14T12:25:10.445Z,2.0
2022-10-14T12:30:10.775Z,1.5
2022-10-14T12:35:11.089Z,1.3
2022-10-14T12:40:11.459Z,1.2
2022-10-14T12:50:11.980Z,1.4
2022-10-14T12:55:12.274Z,1.7
2022-10-14T13:00:14.597Z,0.8
2022-10-14T13:05:15.012Z,1.5
2022-10-14T13:10:13.202Z,1.4
2022-10-14T13:15:13.545Z,1.0
2022-10-14T13:20:13.852Z,1.5
2022-10-14T13:25:14.193Z,1.8
2022-10-14T13:30:14.519Z,2.3
2022-10-14T13:35:14.901Z,1.9
2022-10-14T13:50:15.825Z,1.2
2022-10-14T13:55:16.094Z,1.4
2022-10-14T14:00:40.025Z,1.1
2022-10-14T14:05:16.817Z,1.2
2022-10-14T14:10:17.076Z,1.8
2022-10-14T14:15:17.371Z,1.5
2022-10-14T14:20:17.750Z,1.8
2022-10-14T14:25:33.913Z,1.7
2022-10-14T14:30:18.377Z,1.8
2022-10-14T14:35:22.076Z,0.9
2022-10-14T14:40:19.044Z,3.0
2022-10-14T14:45:19.306Z,2.3
2022-10-14T14:50:30.526Z,5.8
2022-10-14T14:55:19.977Z,2.4
2022-10-14T15:00:20.376Z,1.3
2022-10-14T15:05:20.583Z,1.2
2022-10-14T15:10:20.931Z,0.8
2022-10-14T15:15:21.437Z,0.9
2022-10-14T15:25:21.942Z,0.6
2022-10-14T15:30:22.269Z,0.5
2022-10-14T15:35:22.582Z,0.9
2022-10-14T15:40:22.843Z,1.1
2022-10-14T15:45:23.547Z,0.5
2022-10-14T15:50:23.366Z,0.7
2022-10-14T16:15:28.663Z,0.8
2022-10-14T16:20:24.932Z,1.0
2022-10-14T16:25:25.290Z,0.8
2022-10-14T16:30:25.537Z,1.1
2022-10-14T16:35:25.829Z,1.4
2022-10-14T16:40:26.123Z,1.0
2022-10-14T16:45:26.420Z,0.8
2022-10-14T16:50:26.646Z,21.2
2022-10-14T16:55:26.881Z,4.8
2022-10-14T17:00:27.129Z,2.1
2022-10-14T17:05:31.357Z,1.6
2022-10-14T17:10:27.568Z,1.5
2022-10-14T17:15:27.774Z,1.3
2022-10-14T17:20:27.927Z,1.2
2022-10-14T17:25:28.112Z,1.3
2022-10-14T17:30:28.319Z,2.0
2022-10-14T17:35:28.494Z,5.2
2022-10-14T17:40:28.676Z,4.3
2022-10-14T17:45:28.877Z,3.5
2022-10-14T17:50:29.091Z,3.4
2022-10-14T17:55:29.298Z,2.5
2022-10-14T18:00:29.395Z,4.6
2022-10-14T18:05:29.615Z,10.3
2022-10-14T18:10:29.760Z,7.6
2022-10-14T18:15:29.979Z,9.8
2022-10-14T18:20:30.107Z,5.4
2022-10-14T18:25:30.286Z,4.9
2022-10-14T18:30:32.453Z,4.5
2022-10-14T18:35:30.625Z,5.7
2022-10-14T18:40:30.765Z,7.5
2022-10-14T18:45:30.962Z,4.8
2022-10-14T18:50:31.108Z,4.1
2022-10-14T18:55:31.297Z,4.0
2022-10-14T19:00:31.391Z,16.5
2022-10-14T19:05:33.111Z,14.0
2022-10-14T19:10:31.747Z,18.5
2022-10-14T19:15:31.971Z,19.6
2022-10-14T19:20:32.077Z,17.8
2022-10-14T19:25:32.268Z,18.6
2022-10-14T19:30:32.324Z,16.4
2022-10-14T19:35:36.485Z,11.8
2022-10-14T19:40:34.584Z,11.4
2022-10-14T19:45:32.696Z,12.4
2022-10-14T19:50:32.799Z,12.1
2022-10-14T19:55:32.888Z,13.8
2022-10-14T20:00:33.012Z,11.7
2022-10-14T20:05:33.100Z,15.6
2022-10-14T20:10:33.220Z,18.3
2022-10-14T20:15:33.320Z,19.7
2022-10-14T20:20:33.496Z,25.4
2022-10-14T20:25:33.521Z,19.3
2022-10-14T20:30:33.568Z,19.1
2022-10-14T20:35:33.655Z,31.8
2022-10-14T20:40:33.890Z,29.8
2022-10-14T20:45:33.828Z,39.5
2022-10-14T20:50:35.962Z,40.8
2022-10-14T20:55:33.963Z,27.6
2022-10-14T21:00:34.020Z,21.1
2022-10-14T21:05:34.095Z,18.9
2022-10-14T21:10:34.156Z,20.8
2022-10-14T21:15:34.271Z,10.1
2022-10-14T21:20:34.296Z,11.1
2022-10-14T21:25:36.340Z,7.6
2022-10-14T21:30:34.387Z,11.4
2022-10-14T21:35:34.470Z,11.6
2022-10-14T21:40:34.499Z,12.4
2022-10-14T21:45:34.598Z,12.1
2022-10-14T21:50:34.559Z,12.9
2022-10-14T21:55:34.673Z,10.7
2022-10-14T22:00:34.731Z,11.8
2022-10-14T22:05:34.766Z,12.3
2022-10-14T22:10:34.853Z,11.0
2022-10-14T22:15:34.929Z,9.8
2022-10-14T22:20:34.949Z,11.0
2022-10-14T22:25:35.034Z,10.6
2022-10-14T22:30:35.034Z,11.5
2022-10-14T22:35:35.084Z,13.0
2022-10-14T22:40:35.144Z,10.9
2022-10-14T22:45:35.143Z,7.6
2022-10-14T22:50:35.298Z,9.7
2022-10-14T22:55:37.701Z,9.8
2022-10-14T23:00:35.379Z,8.7
2022-10-14T23:05:35.290Z,9.9
2022-10-14T23:10:39.363Z,11.5
2022-10-14T23:15:35.334Z,10.9
2022-10-14T23:20:35.358Z,11.4
2022-10-14T23:25:35.449Z,10.3
2022-10-14T23:30:35.459Z,9.9
2022-10-14T23:35:35.532Z,8.1
2022-10-14T23:40:35.680Z,8.0
2022-10-14T23:45:35.612Z,7.9
2022-10-14T23:50:35.675Z,8.8
2022-10-14T23:55:35.713Z,8.6
